sensor_id;sensor_type;location;lat;lon;timestamp;P1;durP1;ratioP1;P2;durP2;ratioP2
76357;SDS011;65185;21.060;105.826;2023-11-21T00:00:35;193.82;;;120.70;;
76357;SDS011;65185;21.060;105.826;2023-11-21T00:03:01;205.23;;;121.72;;
76357;SDS011;65185;21.060;105.826;2023-11-21T00:05:29;194.60;;;121.85;;
76357;SDS011;65185;21.060;105.826;2023-11-21T00:07:56;187.80;;;119.50;;
76357;SDS011;65185;21.060;105.826;2023-11-21T00:10:23;197.40;;;120.47;;
76357;SDS011;65185;21.060;105.826;2023-11-21T00:12:50;175.68;;;115.57;;
76357;SDS011;65185;21.060;105.826;2023-11-21T00:15:17;204.90;;;124.50;;
76357;SDS011;65185;21.060;105.826;2023-11-21T00:17:44;202.00;;;121.35;;
76357;SDS011;65185;21.060;105.826;2023-11-21T00:20:12;204.48;;;121.28;;
76357;SDS011;65185;21.060;105.826;2023-11-21T00:22:39;188.07;;;118.65;;
76357;SDS011;65185;21.060;105.826;2023-11-21T00:25:06;189.80;;;121.18;;
76357;SDS011;65185;21.060;105.826;2023-11-21T00:27:35;198.02;;;119.00;;
76357;SDS011;65185;21.060;105.826;2023-11-21T00:30:02;177.95;;;112.45;;
76357;SDS011;65185;21.060;105.826;2023-11-21T00:32:31;189.38;;;120.75;;
76357;SDS011;65185;21.060;105.826;2023-11-21T00:34:58;176.35;;;114.13;;
76357;SDS011;65185;21.060;105.826;2023-11-21T00:37:25;169.85;;;111.38;;
76357;SDS011;65185;21.060;105.826;2023-11-21T00:39:52;173.70;;;110.57;;
76357;SDS011;65185;21.060;105.826;2023-11-21T00:42:18;177.10;;;109.88;;
76357;SDS011;65185;21.060;105.826;2023-11-21T00:44:47;168.45;;;113.63;;
76357;SDS011;65185;21.060;105.826;2023-11-21T00:47:14;166.57;;;106.65;;
76357;SDS011;65185;21.060;105.826;2023-11-21T00:49:41;155.30;;;99.93;;
76357;SDS011;65185;21.060;105.826;2023-11-21T00:52:08;158.20;;;100.90;;
76357;SDS011;65185;21.060;105.826;2023-11-21T00:54:35;147.10;;;95.40;;
76357;SDS011;65185;21.060;105.826;2023-11-21T00:57:02;151.77;;;98.45;;
76357;SDS011;65185;21.060;105.826;2023-11-21T00:59:29;196.13;;;119.22;;
76357;SDS011;65185;21.060;105.826;2023-11-21T01:01:56;169.75;;;106.20;;
76357;SDS011;65185;21.060;105.826;2023-11-21T01:04:25;162.02;;;102.50;;
76357;SDS011;65185;21.060;105.826;2023-11-21T01:06:53;168.80;;;106.68;;
76357;SDS011;65185;21.060;105.826;2023-11-21T01:09:20;155.50;;;97.93;;
76357;SDS011;65185;21.060;105.826;2023-11-21T01:11:46;167.35;;;101.07;;
76357;SDS011;65185;21.060;105.826;2023-11-21T01:14:13;148.02;;;92.93;;
76357;SDS011;65185;21.060;105.826;2023-11-21T01:16:40;158.05;;;98.68;;
76357;SDS011;65185;21.060;105.826;2023-11-21T01:19:07;139.55;;;91.18;;
76357;SDS011;65185;21.060;105.826;2023-11-21T01:21:34;135.38;;;88.53;;
76357;SDS011;65185;21.060;105.826;2023-11-21T01:24:01;138.07;;;89.28;;
76357;SDS011;65185;21.060;105.826;2023-11-21T01:26:29;132.30;;;87.55;;
76357;SDS011;65185;21.060;105.826;2023-11-21T01:28:55;137.25;;;89.90;;
76357;SDS011;65185;21.060;105.826;2023-11-21T01:31:22;126.45;;;83.53;;
76357;SDS011;65185;21.060;105.826;2023-11-21T01:33:49;125.65;;;83.15;;
76357;SDS011;65185;21.060;105.826;2023-11-21T01:36:16;125.00;;;81.35;;
76357;SDS011;65185;21.060;105.826;2023-11-21T01:38:43;141.27;;;90.60;;
76357;SDS011;65185;21.060;105.826;2023-11-21T01:41:11;167.60;;;107.13;;
76357;SDS011;65185;21.060;105.826;2023-11-21T01:43:38;145.90;;;96.00;;
76357;SDS011;65185;21.060;105.826;2023-11-21T01:46:05;135.88;;;90.55;;
76357;SDS011;65185;21.060;105.826;2023-11-21T01:48:33;139.88;;;93.25;;
76357;SDS011;65185;21.060;105.826;2023-11-21T01:51:00;136.60;;;91.65;;
76357;SDS011;65185;21.060;105.826;2023-11-21T01:53:28;124.68;;;83.35;;
76357;SDS011;65185;21.060;105.826;2023-11-21T01:55:55;127.47;;;86.53;;
76357;SDS011;65185;21.060;105.826;2023-11-21T01:58:23;120.82;;;83.28;;
76357;SDS011;65185;21.060;105.826;2023-11-21T02:00:50;133.60;;;90.40;;
76357;SDS011;65185;21.060;105.826;2023-11-21T02:03:18;133.23;;;85.05;;
76357;SDS011;65185;21.060;105.826;2023-11-21T02:05:45;140.35;;;93.20;;
76357;SDS011;65185;21.060;105.826;2023-11-21T02:08:12;129.85;;;85.03;;
76357;SDS011;65185;21.060;105.826;2023-11-21T02:10:40;137.07;;;91.97;;
76357;SDS011;65185;21.060;105.826;2023-11-21T02:13:06;134.88;;;90.97;;
76357;SDS011;65185;21.060;105.826;2023-11-21T02:15:33;112.50;;;76.93;;
76357;SDS011;65185;21.060;105.826;2023-11-21T02:18:01;139.63;;;89.55;;
76357;SDS011;65185;21.060;105.826;2023-11-21T02:20:28;129.50;;;86.63;;
76357;SDS011;65185;21.060;105.826;2023-11-21T02:22:56;119.15;;;81.90;;
76357;SDS011;65185;21.060;105.826;2023-11-21T02:25:27;111.47;;;76.53;;
76357;SDS011;65185;21.060;105.826;2023-11-21T02:28:04;117.18;;;79.50;;
76357;SDS011;65185;21.060;105.826;2023-11-21T02:30:32;136.85;;;89.20;;
76357;SDS011;65185;21.060;105.826;2023-11-21T02:32:59;131.35;;;85.70;;
76357;SDS011;65185;21.060;105.826;2023-11-21T02:35:27;118.15;;;79.78;;
76357;SDS011;65185;21.060;105.826;2023-11-21T02:37:56;133.60;;;88.65;;
76357;SDS011;65185;21.060;105.826;2023-11-21T02:40:22;122.78;;;82.82;;
76357;SDS011;65185;21.060;105.826;2023-11-21T02:42:50;124.22;;;81.07;;
76357;SDS011;65185;21.060;105.826;2023-11-21T02:45:18;112.28;;;77.65;;
76357;SDS011;65185;21.060;105.826;2023-11-21T02:47:49;107.75;;;71.93;;
76357;SDS011;65185;21.060;105.826;2023-11-21T02:50:18;100.78;;;65.18;;
76357;SDS011;65185;21.060;105.826;2023-11-21T02:52:45;108.60;;;73.05;;
76357;SDS011;65185;21.060;105.826;2023-11-21T02:55:12;104.60;;;71.78;;
76357;SDS011;65185;21.060;105.826;2023-11-21T02:57:39;99.78;;;66.20;;
76357;SDS011;65185;21.060;105.826;2023-11-21T03:00:06;91.82;;;62.00;;
76357;SDS011;65185;21.060;105.826;2023-11-21T03:02:34;98.13;;;63.78;;
76357;SDS011;65185;21.060;105.826;2023-11-21T03:05:05;111.55;;;70.60;;
76357;SDS011;65185;21.060;105.826;2023-11-21T03:07:34;110.03;;;77.70;;
76357;SDS011;65185;21.060;105.826;2023-11-21T03:10:06;115.28;;;78.22;;
76357;SDS011;65185;21.060;105.826;2023-11-21T03:12:36;127.13;;;86.70;;
76357;SDS011;65185;21.060;105.826;2023-11-21T03:15:05;116.10;;;75.28;;
76357;SDS011;65185;21.060;105.826;2023-11-21T03:17:35;117.03;;;78.72;;
76357;SDS011;65185;21.060;105.826;2023-11-21T03:20:02;124.13;;;82.43;;
76357;SDS011;65185;21.060;105.826;2023-11-21T03:22:30;117.97;;;80.47;;
76357;SDS011;65185;21.060;105.826;2023-11-21T03:24:56;115.80;;;79.90;;
76357;SDS011;65185;21.060;105.826;2023-11-21T03:27:24;119.47;;;81.82;;
76357;SDS011;65185;21.060;105.826;2023-11-21T03:29:50;117.65;;;78.60;;
76357;SDS011;65185;21.060;105.826;2023-11-21T03:32:17;110.63;;;74.20;;
76357;SDS011;65185;21.060;105.826;2023-11-21T03:34:56;105.40;;;72.35;;
76357;SDS011;65185;21.060;105.826;2023-11-21T03:37:24;90.68;;;62.92;;
76357;SDS011;65185;21.060;105.826;2023-11-21T03:39:52;87.35;;;57.95;;
76357;SDS011;65185;21.060;105.826;2023-11-21T03:42:24;88.15;;;58.67;;
76357;SDS011;65185;21.060;105.826;2023-11-21T03:44:53;93.50;;;60.17;;
76357;SDS011;65185;21.060;105.826;2023-11-21T03:47:21;96.40;;;60.95;;
76357;SDS011;65185;21.060;105.826;2023-11-21T03:49:48;91.18;;;57.60;;
76357;SDS011;65185;21.060;105.826;2023-11-21T03:52:15;86.55;;;57.25;;
76357;SDS011;65185;21.060;105.826;2023-11-21T03:54:42;71.43;;;46.97;;
76357;SDS011;65185;21.060;105.826;2023-11-21T03:57:09;68.55;;;44.72;;
76357;SDS011;65185;21.060;105.826;2023-11-21T03:59:36;68.00;;;43.70;;
76357;SDS011;65185;21.060;105.826;2023-11-21T04:02:05;71.75;;;45.72;;
76357;SDS011;65185;21.060;105.826;2023-11-21T04:04:33;70.30;;;47.05;;
76357;SDS011;65185;21.060;105.826;2023-11-21T04:07:01;74.20;;;46.45;;
76357;SDS011;65185;21.060;105.826;2023-11-21T04:09:28;72.47;;;46.33;;
76357;SDS011;65185;21.060;105.826;2023-11-21T04:11:55;73.22;;;46.80;;
76357;SDS011;65185;21.060;105.826;2023-11-21T04:14:22;80.65;;;50.75;;
76357;SDS011;65185;21.060;105.826;2023-11-21T04:16:50;74.90;;;47.72;;
76357;SDS011;65185;21.060;105.826;2023-11-21T04:19:17;77.90;;;46.33;;
76357;SDS011;65185;21.060;105.826;2023-11-21T04:21:43;76.95;;;50.58;;
76357;SDS011;65185;21.060;105.826;2023-11-21T04:24:11;74.80;;;48.53;;
76357;SDS011;65185;21.060;105.826;2023-11-21T04:26:38;69.72;;;43.80;;
76357;SDS011;65185;21.060;105.826;2023-11-21T04:29:05;67.97;;;43.47;;
76357;SDS011;65185;21.060;105.826;2023-11-21T04:31:32;70.28;;;44.28;;
76357;SDS011;65185;21.060;105.826;2023-11-21T04:33:59;80.78;;;51.05;;
76357;SDS011;65185;21.060;105.826;2023-11-21T04:36:26;73.82;;;46.90;;
76357;SDS011;65185;21.060;105.826;2023-11-21T04:38:53;83.85;;;55.35;;
76357;SDS011;65185;21.060;105.826;2023-11-21T04:41:19;74.72;;;50.13;;
76357;SDS011;65185;21.060;105.826;2023-11-21T04:43:46;76.88;;;50.08;;
76357;SDS011;65185;21.060;105.826;2023-11-21T04:46:14;86.43;;;54.97;;
76357;SDS011;65185;21.060;105.826;2023-11-21T04:48:41;89.50;;;54.33;;
76357;SDS011;65185;21.060;105.826;2023-11-21T04:51:08;72.85;;;44.92;;
76357;SDS011;65185;21.060;105.826;2023-11-21T04:53:37;91.47;;;58.60;;
76357;SDS011;65185;21.060;105.826;2023-11-21T04:56:05;83.95;;;54.85;;
76357;SDS011;65185;21.060;105.826;2023-11-21T04:58:32;74.60;;;47.53;;
76357;SDS011;65185;21.060;105.826;2023-11-21T05:00:59;74.25;;;46.35;;
76357;SDS011;65185;21.060;105.826;2023-11-21T05:03:26;67.97;;;42.42;;
76357;SDS011;65185;21.060;105.826;2023-11-21T05:05:55;78.30;;;48.35;;
76357;SDS011;65185;21.060;105.826;2023-11-21T05:08:22;67.60;;;42.88;;
76357;SDS011;65185;21.060;105.826;2023-11-21T05:10:49;65.28;;;41.50;;
76357;SDS011;65185;21.060;105.826;2023-11-21T05:13:17;59.65;;;37.17;;
76357;SDS011;65185;21.060;105.826;2023-11-21T05:15:45;65.75;;;41.08;;
76357;SDS011;65185;21.060;105.826;2023-11-21T05:18:12;65.28;;;39.67;;
76357;SDS011;65185;21.060;105.826;2023-11-21T05:20:42;52.75;;;34.90;;
76357;SDS011;65185;21.060;105.826;2023-11-21T05:23:09;47.92;;;31.45;;
76357;SDS011;65185;21.060;105.826;2023-11-21T05:25:37;55.40;;;32.55;;
76357;SDS011;65185;21.060;105.826;2023-11-21T05:28:04;49.50;;;32.22;;
76357;SDS011;65185;21.060;105.826;2023-11-21T05:30:32;56.42;;;35.67;;
76357;SDS011;65185;21.060;105.826;2023-11-21T05:33:01;63.13;;;38.78;;
76357;SDS011;65185;21.060;105.826;2023-11-21T05:35:28;56.63;;;36.13;;
76357;SDS011;65185;21.060;105.826;2023-11-21T05:37:55;61.42;;;37.50;;
76357;SDS011;65185;21.060;105.826;2023-11-21T05:40:22;55.90;;;35.90;;
76357;SDS011;65185;21.060;105.826;2023-11-21T05:42:52;50.78;;;32.72;;
76357;SDS011;65185;21.060;105.826;2023-11-21T05:45:19;53.60;;;33.13;;
76357;SDS011;65185;21.060;105.826;2023-11-21T05:47:46;62.47;;;36.42;;
76357;SDS011;65185;21.060;105.826;2023-11-21T05:50:14;53.65;;;32.40;;
76357;SDS011;65185;21.060;105.826;2023-11-21T05:52:43;48.42;;;31.83;;
76357;SDS011;65185;21.060;105.826;2023-11-21T05:55:11;53.05;;;32.53;;
76357;SDS011;65185;21.060;105.826;2023-11-21T05:57:39;53.00;;;32.83;;
76357;SDS011;65185;21.060;105.826;2023-11-21T06:00:08;55.10;;;32.35;;
76357;SDS011;65185;21.060;105.826;2023-11-21T06:02:38;52.28;;;30.05;;
76357;SDS011;65185;21.060;105.826;2023-11-21T06:05:06;48.00;;;30.45;;
76357;SDS011;65185;21.060;105.826;2023-11-21T06:07:34;44.03;;;28.58;;
76357;SDS011;65185;21.060;105.826;2023-11-21T06:10:02;44.38;;;26.20;;
76357;SDS011;65185;21.060;105.826;2023-11-21T06:12:35;39.55;;;25.70;;
76357;SDS011;65185;21.060;105.826;2023-11-21T06:15:03;45.95;;;26.15;;
76357;SDS011;65185;21.060;105.826;2023-11-21T06:17:33;46.03;;;25.45;;
76357;SDS011;65185;21.060;105.826;2023-11-21T06:20:03;39.38;;;22.92;;
76357;SDS011;65185;21.060;105.826;2023-11-21T06:22:36;39.10;;;22.17;;
76357;SDS011;65185;21.060;105.826;2023-11-21T06:27:55;41.28;;;22.05;;
76357;SDS011;65185;21.060;105.826;2023-11-21T06:30:22;39.25;;;22.42;;
76357;SDS011;65185;21.060;105.826;2023-11-21T06:32:49;33.53;;;20.05;;
76357;SDS011;65185;21.060;105.826;2023-11-21T06:35:16;41.42;;;25.08;;
76357;SDS011;65185;21.060;105.826;2023-11-21T06:37:43;38.08;;;22.05;;
76357;SDS011;65185;21.060;105.826;2023-11-21T06:40:13;37.22;;;21.65;;
76357;SDS011;65185;21.060;105.826;2023-11-21T06:42:47;41.78;;;25.45;;
76357;SDS011;65185;21.060;105.826;2023-11-21T06:45:15;35.85;;;22.05;;
76357;SDS011;65185;21.060;105.826;2023-11-21T06:47:42;42.95;;;24.60;;
76357;SDS011;65185;21.060;105.826;2023-11-21T06:50:09;45.28;;;24.02;;
76357;SDS011;65185;21.060;105.826;2023-11-21T06:52:36;43.63;;;26.10;;
76357;SDS011;65185;21.060;105.826;2023-11-21T06:55:04;44.08;;;27.02;;
76357;SDS011;65185;21.060;105.826;2023-11-21T06:57:33;37.88;;;24.80;;
76357;SDS011;65185;21.060;105.826;2023-11-21T07:00:00;41.55;;;25.30;;
76357;SDS011;65185;21.060;105.826;2023-11-21T07:02:28;48.60;;;27.58;;
76357;SDS011;65185;21.060;105.826;2023-11-21T07:04:55;47.08;;;24.33;;
76357;SDS011;65185;21.060;105.826;2023-11-21T07:07:21;44.53;;;28.25;;
76357;SDS011;65185;21.060;105.826;2023-11-21T07:09:48;55.40;;;28.83;;
76357;SDS011;65185;21.060;105.826;2023-11-21T07:12:15;48.58;;;28.50;;
76357;SDS011;65185;21.060;105.826;2023-11-21T07:14:42;47.83;;;29.10;;
76357;SDS011;65185;21.060;105.826;2023-11-21T07:17:10;42.35;;;27.05;;
76357;SDS011;65185;21.060;105.826;2023-11-21T07:19:38;43.95;;;27.77;;
76357;SDS011;65185;21.060;105.826;2023-11-21T07:22:05;46.40;;;27.20;;
76357;SDS011;65185;21.060;105.826;2023-11-21T07:24:32;42.05;;;25.15;;
76357;SDS011;65185;21.060;105.826;2023-11-21T07:27:00;41.88;;;23.42;;
76357;SDS011;65185;21.060;105.826;2023-11-21T07:29:26;39.97;;;24.15;;
76357;SDS011;65185;21.060;105.826;2023-11-21T07:31:55;42.90;;;25.77;;
76357;SDS011;65185;21.060;105.826;2023-11-21T07:34:22;37.63;;;24.73;;
76357;SDS011;65185;21.060;105.826;2023-11-21T07:36:49;45.38;;;26.65;;
76357;SDS011;65185;21.060;105.826;2023-11-21T07:39:16;40.53;;;24.90;;
76357;SDS011;65185;21.060;105.826;2023-11-21T07:41:43;41.97;;;26.85;;
76357;SDS011;65185;21.060;105.826;2023-11-21T07:44:14;51.20;;;29.45;;
76357;SDS011;65185;21.060;105.826;2023-11-21T07:46:43;41.60;;;26.60;;
76357;SDS011;65185;21.060;105.826;2023-11-21T07:49:10;39.35;;;24.20;;
76357;SDS011;65185;21.060;105.826;2023-11-21T07:51:37;43.60;;;28.35;;
76357;SDS011;65185;21.060;105.826;2023-11-21T07:54:04;48.38;;;29.48;;
76357;SDS011;65185;21.060;105.826;2023-11-21T07:56:31;43.13;;;27.73;;
76357;SDS011;65185;21.060;105.826;2023-11-21T07:58:58;50.38;;;30.02;;
76357;SDS011;65185;21.060;105.826;2023-11-21T08:01:25;49.95;;;31.08;;
76357;SDS011;65185;21.060;105.826;2023-11-21T08:03:54;43.03;;;25.50;;
76357;SDS011;65185;21.060;105.826;2023-11-21T08:06:23;40.88;;;26.98;;
76357;SDS011;65185;21.060;105.826;2023-11-21T08:08:51;38.30;;;25.25;;
76357;SDS011;65185;21.060;105.826;2023-11-21T08:11:18;49.13;;;26.80;;
76357;SDS011;65185;21.060;105.826;2023-11-21T08:13:45;38.08;;;23.83;;
76357;SDS011;65185;21.060;105.826;2023-11-21T08:16:12;38.17;;;24.50;;
76357;SDS011;65185;21.060;105.826;2023-11-21T08:18:39;37.70;;;24.42;;
76357;SDS011;65185;21.060;105.826;2023-11-21T08:21:06;45.08;;;29.05;;
76357;SDS011;65185;21.060;105.826;2023-11-21T08:23:33;40.17;;;27.23;;
76357;SDS011;65185;21.060;105.826;2023-11-21T08:26:00;50.08;;;31.67;;
76357;SDS011;65185;21.060;105.826;2023-11-21T08:28:28;44.40;;;29.70;;
76357;SDS011;65185;21.060;105.826;2023-11-21T08:30:55;50.95;;;32.53;;
76357;SDS011;65185;21.060;105.826;2023-11-21T08:33:22;43.85;;;29.13;;
76357;SDS011;65185;21.060;105.826;2023-11-21T08:35:49;38.60;;;27.20;;
76357;SDS011;65185;21.060;105.826;2023-11-21T08:38:16;38.72;;;27.42;;
76357;SDS011;65185;21.060;105.826;2023-11-21T08:40:43;48.58;;;31.10;;
76357;SDS011;65185;21.060;105.826;2023-11-21T08:43:10;44.78;;;30.58;;
76357;SDS011;65185;21.060;105.826;2023-11-21T08:45:39;50.00;;;34.30;;
76357;SDS011;65185;21.060;105.826;2023-11-21T08:48:06;55.92;;;35.33;;
76357;SDS011;65185;21.060;105.826;2023-11-21T08:50:34;45.88;;;31.25;;
76357;SDS011;65185;21.060;105.826;2023-11-21T08:53:00;51.35;;;32.60;;
76357;SDS011;65185;21.060;105.826;2023-11-21T08:55:27;53.63;;;34.38;;
76357;SDS011;65185;21.060;105.826;2023-11-21T08:57:54;55.60;;;32.17;;
76357;SDS011;65185;21.060;105.826;2023-11-21T09:00:21;58.05;;;35.75;;
76357;SDS011;65185;21.060;105.826;2023-11-21T09:02:48;53.22;;;33.40;;
76357;SDS011;65185;21.060;105.826;2023-11-21T09:05:14;59.05;;;35.25;;
76357;SDS011;65185;21.060;105.826;2023-11-21T09:07:42;58.05;;;36.35;;
76357;SDS011;65185;21.060;105.826;2023-11-21T09:10:11;55.28;;;34.58;;
76357;SDS011;65185;21.060;105.826;2023-11-21T09:16:00;49.97;;;34.38;;
76357;SDS011;65185;21.060;105.826;2023-11-21T09:18:29;52.13;;;34.55;;
76357;SDS011;65185;21.060;105.826;2023-11-21T09:20:56;66.32;;;41.38;;
76357;SDS011;65185;21.060;105.826;2023-11-21T09:23:23;55.53;;;36.38;;
76357;SDS011;65185;21.060;105.826;2023-11-21T09:25:50;55.72;;;36.33;;
76357;SDS011;65185;21.060;105.826;2023-11-21T09:28:17;56.22;;;35.60;;
76357;SDS011;65185;21.060;105.826;2023-11-21T09:30:44;56.42;;;37.88;;
76357;SDS011;65185;21.060;105.826;2023-11-21T09:33:10;57.13;;;37.10;;
76357;SDS011;65185;21.060;105.826;2023-11-21T09:35:37;49.72;;;34.17;;
76357;SDS011;65185;21.060;105.826;2023-11-21T09:38:03;50.72;;;35.40;;
76357;SDS011;65185;21.060;105.826;2023-11-21T09:40:36;51.58;;;34.83;;
76357;SDS011;65185;21.060;105.826;2023-11-21T09:43:07;50.95;;;35.97;;
76357;SDS011;65185;21.060;105.826;2023-11-21T09:45:41;49.65;;;33.53;;
76357;SDS011;65185;21.060;105.826;2023-11-21T09:48:12;53.60;;;35.45;;
76357;SDS011;65185;21.060;105.826;2023-11-21T09:50:42;53.05;;;34.97;;
76357;SDS011;65185;21.060;105.826;2023-11-21T09:53:18;57.97;;;38.78;;
76357;SDS011;65185;21.060;105.826;2023-11-21T09:55:48;58.20;;;39.60;;
76357;SDS011;65185;21.060;105.826;2023-11-21T09:58:16;65.30;;;41.65;;
76357;SDS011;65185;21.060;105.826;2023-11-21T10:00:45;56.47;;;38.60;;
76357;SDS011;65185;21.060;105.826;2023-11-21T10:03:12;54.95;;;37.40;;
76357;SDS011;65185;21.060;105.826;2023-11-21T10:05:43;59.70;;;41.53;;
76357;SDS011;65185;21.060;105.826;2023-11-21T10:08:11;60.53;;;41.28;;
76357;SDS011;65185;21.060;105.826;2023-11-21T10:10:46;57.60;;;39.38;;
76357;SDS011;65185;21.060;105.826;2023-11-21T10:13:15;60.00;;;40.03;;
76357;SDS011;65185;21.060;105.826;2023-11-21T10:18:15;61.22;;;41.72;;
76357;SDS011;65185;21.060;105.826;2023-11-21T10:20:42;59.47;;;40.65;;
76357;SDS011;65185;21.060;105.826;2023-11-21T10:25:38;63.33;;;41.95;;
76357;SDS011;65185;21.060;105.826;2023-11-21T10:28:04;59.15;;;43.10;;
76357;SDS011;65185;21.060;105.826;2023-11-21T10:30:35;57.97;;;39.63;;
76357;SDS011;65185;21.060;105.826;2023-11-21T10:33:03;61.80;;;42.47;;
76357;SDS011;65185;21.060;105.826;2023-11-21T10:35:43;64.63;;;44.88;;
76357;SDS011;65185;21.060;105.826;2023-11-21T10:38:20;70.90;;;47.63;;
76357;SDS011;65185;21.060;105.826;2023-11-21T10:40:49;69.97;;;48.95;;
76357;SDS011;65185;21.060;105.826;2023-11-21T10:43:17;69.72;;;47.38;;
76357;SDS011;65185;21.060;105.826;2023-11-21T10:45:43;65.13;;;44.28;;
76357;SDS011;65185;21.060;105.826;2023-11-21T10:48:12;61.75;;;43.13;;
76357;SDS011;65185;21.060;105.826;2023-11-21T10:50:46;67.82;;;45.85;;
76357;SDS011;65185;21.060;105.826;2023-11-21T10:53:13;68.82;;;48.28;;
76357;SDS011;65185;21.060;105.826;2023-11-21T10:55:40;67.25;;;45.65;;
76357;SDS011;65185;21.060;105.826;2023-11-21T10:58:09;62.90;;;45.05;;
76357;SDS011;65185;21.060;105.826;2023-11-21T11:00:39;71.45;;;47.10;;
76357;SDS011;65185;21.060;105.826;2023-11-21T11:03:06;75.70;;;49.83;;
76357;SDS011;65185;21.060;105.826;2023-11-21T11:05:39;78.43;;;47.45;;
76357;SDS011;65185;21.060;105.826;2023-11-21T11:08:16;79.43;;;47.83;;
76357;SDS011;65185;21.060;105.826;2023-11-21T11:10:51;69.35;;;43.75;;
76357;SDS011;65185;21.060;105.826;2023-11-21T11:13:18;73.60;;;46.58;;
76357;SDS011;65185;21.060;105.826;2023-11-21T11:15:48;81.15;;;51.78;;
76357;SDS011;65185;21.060;105.826;2023-11-21T11:18:16;68.88;;;45.88;;
76357;SDS011;65185;21.060;105.826;2023-11-21T11:20:42;78.32;;;46.10;;
76357;SDS011;65185;21.060;105.826;2023-11-21T11:23:55;79.93;;;49.35;;
76357;SDS011;65185;21.060;105.826;2023-11-21T11:34:47;62.58;;;40.25;;
76357;SDS011;65185;21.060;105.826;2023-11-21T11:37:23;70.60;;;40.78;;
76357;SDS011;65185;21.060;105.826;2023-11-21T11:39:49;68.15;;;41.65;;
76357;SDS011;65185;21.060;105.826;2023-11-21T11:42:17;60.53;;;39.63;;
76357;SDS011;65185;21.060;105.826;2023-11-21T11:52:51;71.43;;;40.80;;
76357;SDS011;65185;21.060;105.826;2023-11-21T11:55:24;65.45;;;39.20;;
76357;SDS011;65185;21.060;105.826;2023-11-21T11:57:55;65.15;;;38.88;;
76357;SDS011;65185;21.060;105.826;2023-11-21T12:03:02;64.15;;;40.88;;
76357;SDS011;65185;21.060;105.826;2023-11-21T12:05:31;64.63;;;39.25;;
76357;SDS011;65185;21.060;105.826;2023-11-21T12:08:03;71.50;;;43.28;;
76357;SDS011;65185;21.060;105.826;2023-11-21T12:10:32;65.25;;;39.75;;
76357;SDS011;65185;21.060;105.826;2023-11-21T12:13:01;67.18;;;38.35;;
76357;SDS011;65185;21.060;105.826;2023-11-21T12:15:35;59.30;;;36.47;;
76357;SDS011;65185;21.060;105.826;2023-11-21T12:18:03;60.80;;;36.58;;
76357;SDS011;65185;21.060;105.826;2023-11-21T12:20:31;58.25;;;34.17;;
76357;SDS011;65185;21.060;105.826;2023-11-21T12:22:58;56.58;;;33.63;;
76357;SDS011;65185;21.060;105.826;2023-11-21T12:25:26;54.13;;;33.55;;
76357;SDS011;65185;21.060;105.826;2023-11-21T12:27:57;56.90;;;31.88;;
76357;SDS011;65185;21.060;105.826;2023-11-21T12:30:28;55.88;;;33.78;;
76357;SDS011;65185;21.060;105.826;2023-11-21T12:32:57;53.42;;;32.08;;
76357;SDS011;65185;21.060;105.826;2023-11-21T12:35:26;59.55;;;32.90;;
76357;SDS011;65185;21.060;105.826;2023-11-21T12:37:56;52.35;;;31.55;;
76357;SDS011;65185;21.060;105.826;2023-11-21T12:40:23;51.33;;;30.98;;
76357;SDS011;65185;21.060;105.826;2023-11-21T12:42:57;57.03;;;33.40;;
76357;SDS011;65185;21.060;105.826;2023-11-21T12:45:25;59.03;;;34.30;;
76357;SDS011;65185;21.060;105.826;2023-11-21T12:50:28;60.03;;;33.20;;
76357;SDS011;65185;21.060;105.826;2023-11-21T12:53:00;62.47;;;33.42;;
76357;SDS011;65185;21.060;105.826;2023-11-21T12:55:30;60.03;;;32.67;;
76357;SDS011;65185;21.060;105.826;2023-11-21T12:58:03;61.35;;;34.50;;
76357;SDS011;65185;21.060;105.826;2023-11-21T13:00:45;60.53;;;33.65;;
76357;SDS011;65185;21.060;105.826;2023-11-21T13:03:13;60.55;;;33.40;;
76357;SDS011;65185;21.060;105.826;2023-11-21T13:05:51;63.85;;;34.22;;
76357;SDS011;65185;21.060;105.826;2023-11-21T13:08:23;61.97;;;33.38;;
76357;SDS011;65185;21.060;105.826;2023-11-21T13:10:54;60.50;;;31.55;;
76357;SDS011;65185;21.060;105.826;2023-11-21T13:13:21;64.80;;;33.28;;
76357;SDS011;65185;21.060;105.826;2023-11-21T13:15:50;55.13;;;31.00;;
76357;SDS011;65185;21.060;105.826;2023-11-21T13:18:22;52.10;;;28.60;;
76357;SDS011;65185;21.060;105.826;2023-11-21T13:20:49;49.65;;;27.05;;
76357;SDS011;65185;21.060;105.826;2023-11-21T13:23:16;56.53;;;27.88;;
76357;SDS011;65185;21.060;105.826;2023-11-21T13:25:42;57.42;;;29.25;;
76357;SDS011;65185;21.060;105.826;2023-11-21T13:28:11;57.30;;;29.33;;
76357;SDS011;65185;21.060;105.826;2023-11-21T13:30:38;53.15;;;28.55;;
76357;SDS011;65185;21.060;105.826;2023-11-21T13:33:05;47.80;;;25.77;;
76357;SDS011;65185;21.060;105.826;2023-11-21T13:35:43;50.35;;;26.23;;
76357;SDS011;65185;21.060;105.826;2023-11-21T13:38:18;54.83;;;26.58;;
76357;SDS011;65185;21.060;105.826;2023-11-21T13:40:57;53.40;;;25.63;;
76357;SDS011;65185;21.060;105.826;2023-11-21T13:43:24;51.47;;;28.15;;
76357;SDS011;65185;21.060;105.826;2023-11-21T13:45:54;52.97;;;28.30;;
76357;SDS011;65185;21.060;105.826;2023-11-21T13:48:33;47.53;;;24.98;;
76357;SDS011;65185;21.060;105.826;2023-11-21T13:51:07;56.70;;;28.13;;
76357;SDS011;65185;21.060;105.826;2023-11-21T13:53:47;58.35;;;29.02;;
76357;SDS011;65185;21.060;105.826;2023-11-21T13:56:16;57.58;;;28.70;;
76357;SDS011;65185;21.060;105.826;2023-11-21T13:58:47;56.22;;;28.40;;
76357;SDS011;65185;21.060;105.826;2023-11-21T14:03:56;53.22;;;27.65;;
76357;SDS011;65185;21.060;105.826;2023-11-21T14:06:48;54.42;;;29.80;;
76357;SDS011;65185;21.060;105.826;2023-11-21T14:09:19;48.53;;;26.35;;
76357;SDS011;65185;21.060;105.826;2023-11-21T14:11:58;56.60;;;27.45;;
76357;SDS011;65185;21.060;105.826;2023-11-21T14:14:26;50.83;;;27.13;;
76357;SDS011;65185;21.060;105.826;2023-11-21T14:16:53;52.55;;;27.48;;
76357;SDS011;65185;21.060;105.826;2023-11-21T14:19:24;52.80;;;28.90;;
76357;SDS011;65185;21.060;105.826;2023-11-21T14:21:57;47.92;;;26.77;;
76357;SDS011;65185;21.060;105.826;2023-11-21T14:24:23;49.95;;;26.52;;
76357;SDS011;65185;21.060;105.826;2023-11-21T14:26:50;55.10;;;28.67;;
76357;SDS011;65185;21.060;105.826;2023-11-21T14:29:18;51.10;;;26.80;;
76357;SDS011;65185;21.060;105.826;2023-11-21T14:31:45;52.00;;;27.05;;
76357;SDS011;65185;21.060;105.826;2023-11-21T14:34:12;49.67;;;26.92;;
76357;SDS011;65185;21.060;105.826;2023-11-21T14:36:40;56.38;;;29.67;;